sensor_id;sensor_type;location;lat;lon;timestamp;pressure;altitude;pressure_sealevel;temperature;humidity
8894;BME280;4483;48.622;9.230;2023-05-21T00:02:20;97475.53;;;15.42;100.00
8894;BME280;4483;48.622;9.230;2023-05-21T00:04:47;97470.50;;;15.39;100.00
8894;BME280;4483;48.622;9.230;2023-05-21T00:07:14;97463.75;;;15.37;100.00
8894;BME280;4483;48.622;9.230;2023-05-21T00:09:40;97460.50;;;15.33;100.00
8894;BME280;4483;48.622;9.230;2023-05-21T00:12:09;97463.31;;;15.30;100.00
8894;BME280;4483;48.622;9.230;2023-05-21T00:14:35;97468.50;;;15.30;100.00
8894;BME280;4483;48.622;9.230;2023-05-21T00:17:02;97458.97;;;15.31;100.00
8894;BME280;4483;48.622;9.230;2023-05-21T00:19:29;97465.19;;;15.28;100.00
8894;BME280;4483;48.622;9.230;2023-05-21T00:21:56;97462.81;;;15.25;100.00
8894;BME280;4483;48.622;9.230;2023-05-21T00:24:26;97452.59;;;15.22;100.00
8894;BME280;4483;48.622;9.230;2023-05-21T00:26:53;97455.31;;;15.21;100.00
8894;BME280;4483;48.622;9.230;2023-05-21T00:29:22;97448.47;;;15.20;100.00
8894;BME280;4483;48.622;9.230;2023-05-21T00:31:48;97449.47;;;15.17;100.00
8894;BME280;4483;48.622;9.230;2023-05-21T00:34:16;97440.03;;;15.16;100.00
8894;BME280;4483;48.622;9.230;2023-05-21T00:36:43;97436.72;;;15.14;100.00
8894;BME280;4483;48.622;9.230;2023-05-21T00:39:10;97432.44;;;15.13;100.00
8894;BME280;4483;48.622;9.230;2023-05-21T00:41:37;97436.09;;;15.10;100.00
8894;BME280;4483;48.622;9.230;2023-05-21T00:44:04;97431.91;;;15.08;100.00
8894;BME280;4483;48.622;9.230;2023-05-21T00:46:32;97432.84;;;15.07;100.00
8894;BME280;4483;48.622;9.230;2023-05-21T00:48:59;97427.75;;;15.05;100.00
8894;BME280;4483;48.622;9.230;2023-05-21T00:51:26;97425.16;;;15.05;100.00
8894;BME280;4483;48.622;9.230;2023-05-21T00:53:55;97431.28;;;15.04;100.00
8894;BME280;4483;48.622;9.230;2023-05-21T00:56:22;97427.13;;;15.02;100.00
8894;BME280;4483;48.622;9.230;2023-05-21T00:58:51;97422.97;;;14.99;100.00
8894;BME280;4483;48.622;9.230;2023-05-21T01:01:19;97428.34;;;14.96;100.00
8894;BME280;4483;48.622;9.230;2023-05-21T01:03:47;97433.75;;;14.93;100.00
8894;BME280;4483;48.622;9.230;2023-05-21T01:06:13;97429.56;;;14.91;100.00
8894;BME280;4483;48.622;9.230;2023-05-21T01:08:40;97427.19;;;14.88;100.00
8894;BME280;4483;48.622;9.230;2023-05-21T01:11:08;97429.13;;;14.84;100.00
8894;BME280;4483;48.622;9.230;2023-05-21T01:13:38;97430.25;;;14.80;100.00
8894;BME280;4483;48.622;9.230;2023-05-21T01:16:06;97432.13;;;14.78;100.00
8894;BME280;4483;48.622;9.230;2023-05-21T01:18:34;97427.03;;;14.77;100.00
8894;BME280;4483;48.622;9.230;2023-05-21T01:21:03;97414.16;;;14.75;100.00
8894;BME280;4483;48.622;9.230;2023-05-21T01:23:33;97415.28;;;14.71;100.00
8894;BME280;4483;48.622;9.230;2023-05-21T01:26:00;97416.31;;;14.69;100.00
8894;BME280;4483;48.622;9.230;2023-05-21T01:28:26;97417.44;;;14.65;100.00
8894;BME280;4483;48.622;9.230;2023-05-21T01:30:55;97408.94;;;14.63;100.00
8894;BME280;4483;48.622;9.230;2023-05-21T01:33:29;97409.94;;;14.60;100.00
8894;BME280;4483;48.622;9.230;2023-05-21T01:36:03;97418.66;;;14.59;100.00
8894;BME280;4483;48.622;9.230;2023-05-21T01:38:38;97422.19;;;14.58;100.00
8894;BME280;4483;48.622;9.230;2023-05-21T01:41:09;97414.59;;;14.55;100.00
8894;BME280;4483;48.622;9.230;2023-05-21T01:43:40;97419.88;;;14.54;100.00
8894;BME280;4483;48.622;9.230;2023-05-21T01:46:09;97417.38;;;14.52;100.00
8894;BME280;4483;48.622;9.230;2023-05-21T01:48:36;97407.94;;;14.51;100.00
8894;BME280;4483;48.622;9.230;2023-05-21T01:51:04;97408.88;;;14.50;100.00
8894;BME280;4483;48.622;9.230;2023-05-21T01:53:31;97406.34;;;14.49;100.00
8894;BME280;4483;48.622;9.230;2023-05-21T01:55:59;97406.56;;;14.46;100.00
8894;BME280;4483;48.622;9.230;2023-05-21T01:58:27;97410.91;;;14.45;100.00
8894;BME280;4483;48.622;9.230;2023-05-21T02:00:53;97406.66;;;14.44;100.00
8894;BME280;4483;48.622;9.230;2023-05-21T02:03:24;97414.44;;;14.44;100.00
8894;BME280;4483;48.622;9.230;2023-05-21T02:05:50;97413.69;;;14.42;100.00
8894;BME280;4483;48.622;9.230;2023-05-21T02:08:17;97419.78;;;14.41;100.00
8894;BME280;4483;48.622;9.230;2023-05-21T02:10:44;97412.97;;;14.40;100.00
8894;BME280;4483;48.622;9.230;2023-05-21T02:13:12;97424.34;;;14.38;100.00
8894;BME280;4483;48.622;9.230;2023-05-21T02:15:40;97420.94;;;14.37;100.00
8894;BME280;4483;48.622;9.230;2023-05-21T02:18:07;97410.00;;;14.32;100.00
8894;BME280;4483;48.622;9.230;2023-05-21T02:20:34;97425.38;;;14.35;100.00
8894;BME280;4483;48.622;9.230;2023-05-21T02:23:00;97418.72;;;14.31;100.00
8894;BME280;4483;48.622;9.230;2023-05-21T02:25:27;97424.84;;;14.30;100.00
8894;BME280;4483;48.622;9.230;2023-05-21T02:27:53;97419.72;;;14.29;100.00
8894;BME280;4483;48.622;9.230;2023-05-21T02:30:22;97417.25;;;14.27;100.00
8894;BME280;4483;48.622;9.230;2023-05-21T02:32:48;97415.66;;;14.25;100.00
8894;BME280;4483;48.622;9.230;2023-05-21T02:35:15;97407.22;;;14.21;100.00
8894;BME280;4483;48.622;9.230;2023-05-21T02:37:42;97410.09;;;14.17;100.00
8894;BME280;4483;48.622;9.230;2023-05-21T02:40:09;97410.94;;;14.17;100.00
8894;BME280;4483;48.622;9.230;2023-05-21T02:42:37;97405.03;;;14.15;100.00
8894;BME280;4483;48.622;9.230;2023-05-21T02:45:04;97407.72;;;14.13;100.00
8894;BME280;4483;48.622;9.230;2023-05-21T02:47:33;97400.94;;;14.11;100.00
8894;BME280;4483;48.622;9.230;2023-05-21T02:49:59;97399.38;;;14.08;100.00
8894;BME280;4483;48.622;9.230;2023-05-21T02:52:27;97397.81;;;14.06;100.00
8894;BME280;4483;48.622;9.230;2023-05-21T02:54:53;97400.50;;;14.04;100.00
8894;BME280;4483;48.622;9.230;2023-05-21T02:57:20;97397.91;;;14.04;100.00
8894;BME280;4483;48.622;9.230;2023-05-21T02:59:46;97393.84;;;14.00;100.00
8894;BME280;4483;48.622;9.230;2023-05-21T03:02:13;97398.38;;;13.97;100.00
8894;BME280;4483;48.622;9.230;2023-05-21T03:04:42;97402.06;;;13.93;100.00
8894;BME280;4483;48.622;9.230;2023-05-21T03:07:11;97393.66;;;13.89;100.00
8894;BME280;4483;48.622;9.230;2023-05-21T03:09:39;97396.41;;;13.86;100.00
8894;BME280;4483;48.622;9.230;2023-05-21T03:12:06;97402.53;;;13.85;100.00
8894;BME280;4483;48.622;9.230;2023-05-21T03:14:33;97406.97;;;13.83;100.00
8894;BME280;4483;48.622;9.230;2023-05-21T03:17:00;97406.13;;;13.83;100.00
8894;BME280;4483;48.622;9.230;2023-05-21T03:19:27;97393.75;;;13.74;100.00
8894;BME280;4483;48.622;9.230;2023-05-21T03:21:56;97397.81;;;13.78;100.00
8894;BME280;4483;48.622;9.230;2023-05-21T03:24:22;97400.59;;;13.75;100.00
8894;BME280;4483;48.622;9.230;2023-05-21T03:26:49;97399.03;;;13.72;100.00
8894;BME280;4483;48.622;9.230;2023-05-21T03:29:15;97387.91;;;13.70;100.00
8894;BME280;4483;48.622;9.230;2023-05-21T03:31:42;97391.44;;;13.69;100.00
8894;BME280;4483;48.622;9.230;2023-05-21T03:34:09;97391.53;;;13.68;100.00
8894;BME280;4483;48.622;9.230;2023-05-21T03:36:35;97385.69;;;13.64;100.00
8894;BME280;4483;48.622;9.230;2023-05-21T03:39:03;97390.06;;;13.64;100.00
8894;BME280;4483;48.622;9.230;2023-05-21T03:41:31;97393.56;;;13.63;100.00
8894;BME280;4483;48.622;9.230;2023-05-21T03:43:58;97395.41;;;13.61;100.00
8894;BME280;4483;48.622;9.230;2023-05-21T03:46:24;97393.00;;;13.58;100.00
8894;BME280;4483;48.622;9.230;2023-05-21T03:48:52;97385.44;;;13.55;100.00
8894;BME280;4483;48.622;9.230;2023-05-21T03:51:18;97391.59;;;13.52;100.00
8894;BME280;4483;48.622;9.230;2023-05-21T03:53:45;97387.44;;;13.50;100.00
8894;BME280;4483;48.622;9.230;2023-05-21T03:56:13;97394.47;;;13.48;100.00
8894;BME280;4483;48.622;9.230;2023-05-21T03:58:40;97404.16;;;13.44;100.00
8894;BME280;4483;48.622;9.230;2023-05-21T04:01:06;97401.50;;;13.46;100.00
8894;BME280;4483;48.622;9.230;2023-05-21T04:03:35;97396.31;;;13.46;100.00
8894;BME280;4483;48.622;9.230;2023-05-21T04:06:02;97399.81;;;13.45;100.00
8894;BME280;4483;48.622;9.230;2023-05-21T04:08:28;97404.09;;;13.46;100.00
8894;BME280;4483;48.622;9.230;2023-05-21T04:10:55;97407.50;;;13.46;100.00
8894;BME280;4483;48.622;9.230;2023-05-21T04:13:23;97405.84;;;13.45;100.00
8894;BME280;4483;48.622;9.230;2023-05-21T04:15:50;97412.75;;;13.45;100.00
8894;BME280;4483;48.622;9.230;2023-05-21T04:18:16;97412.66;;;13.46;100.00
8894;BME280;4483;48.622;9.230;2023-05-21T04:20:44;97411.66;;;13.49;100.00
8894;BME280;4483;48.622;9.230;2023-05-21T04:23:11;97420.16;;;13.51;100.00
8894;BME280;4483;48.622;9.230;2023-05-21T04:25:38;97421.00;;;13.51;100.00
8894;BME280;4483;48.622;9.230;2023-05-21T04:28:04;97423.84;;;13.47;100.00
8894;BME280;4483;48.622;9.230;2023-05-21T04:30:32;97432.56;;;13.46;100.00
8894;BME280;4483;48.622;9.230;2023-05-21T04:33:00;97434.31;;;13.45;100.00
8894;BME280;4483;48.622;9.230;2023-05-21T04:35:27;97439.38;;;13.47;100.00
8894;BME280;4483;48.622;9.230;2023-05-21T04:37:53;97439.19;;;13.50;100.00
8894;BME280;4483;48.622;9.230;2023-05-21T04:40:20;97442.47;;;13.53;100.00
8894;BME280;4483;48.622;9.230;2023-05-21T04:42:48;97440.53;;;13.57;100.00
8894;BME280;4483;48.622;9.230;2023-05-21T04:45:16;97447.16;;;13.61;100.00
8894;BME280;4483;48.622;9.230;2023-05-21T04:47:44;97446.06;;;13.65;100.00
8894;BME280;4483;48.622;9.230;2023-05-21T04:50:12;97443.31;;;13.68;100.00
8894;BME280;4483;48.622;9.230;2023-05-21T04:52:39;97448.31;;;13.71;100.00
8894;BME280;4483;48.622;9.230;2023-05-21T04:55:06;97449.78;;;13.75;100.00
8894;BME280;4483;48.622;9.230;2023-05-21T04:57:33;97451.19;;;13.80;100.00
8894;BME280;4483;48.622;9.230;2023-05-21T05:00:00;97449.25;;;13.84;100.00
8894;BME280;4483;48.622;9.230;2023-05-21T05:02:28;97450.72;;;13.88;100.00
8894;BME280;4483;48.622;9.230;2023-05-21T05:04:56;97452.19;;;13.92;100.00
8894;BME280;4483;48.622;9.230;2023-05-21T05:07:24;97452.03;;;13.95;100.00
8894;BME280;4483;48.622;9.230;2023-05-21T05:09:50;97451.63;;;14.01;100.00
8894;BME280;4483;48.622;9.230;2023-05-21T05:12:17;97452.97;;;14.08;100.00
8894;BME280;4483;48.622;9.230;2023-05-21T05:14:44;97449.97;;;14.14;100.00
8894;BME280;4483;48.622;9.230;2023-05-21T05:17:10;97447.03;;;14.20;100.00
8894;BME280;4483;48.622;9.230;2023-05-21T05:19:39;97448.66;;;14.21;100.00
8894;BME280;4483;48.622;9.230;2023-05-21T05:22:07;97445.28;;;14.21;100.00
8894;BME280;4483;48.622;9.230;2023-05-21T05:24:34;97450.09;;;14.27;100.00
8894;BME280;4483;48.622;9.230;2023-05-21T05:27:01;97453.16;;;14.33;100.00
8894;BME280;4483;48.622;9.230;2023-05-21T05:29:27;97446.84;;;14.37;100.00
8894;BME280;4483;48.622;9.230;2023-05-21T05:31:54;97445.53;;;14.44;100.00
8894;BME280;4483;48.622;9.230;2023-05-21T05:34:20;97445.72;;;14.55;100.00
8894;BME280;4483;48.622;9.230;2023-05-21T05:36:47;97438.09;;;14.66;100.00
8894;BME280;4483;48.622;9.230;2023-05-21T05:39:15;97435.81;;;14.74;100.00
8894;BME280;4483;48.622;9.230;2023-05-21T05:41:42;97439.06;;;14.78;100.00
8894;BME280;4483;48.622;9.230;2023-05-21T05:44:08;97438.88;;;14.81;100.00
8894;BME280;4483;48.622;9.230;2023-05-21T05:46:35;97440.25;;;14.86;100.00
8894;BME280;4483;48.622;9.230;2023-05-21T05:49:01;97439.75;;;14.94;100.00
8894;BME280;4483;48.622;9.230;2023-05-21T05:51:28;97441.75;;;15.03;100.00
8894;BME280;4483;48.622;9.230;2023-05-21T05:53:55;97443.75;;;15.12;100.00
8894;BME280;4483;48.622;9.230;2023-05-21T05:56:23;97444.28;;;15.17;100.00
8894;BME280;4483;48.622;9.230;2023-05-21T05:58:51;97449.81;;;15.25;100.00
8894;BME280;4483;48.622;9.230;2023-05-21T06:01:17;97450.25;;;15.32;100.00
8894;BME280;4483;48.622;9.230;2023-05-21T06:03:46;97446.97;;;15.42;100.00
8894;BME280;4483;48.622;9.230;2023-05-21T06:06:13;97454.88;;;15.53;100.00
8894;BME280;4483;48.622;9.230;2023-05-21T06:08:41;97444.72;;;15.63;100.00
8894;BME280;4483;48.622;9.230;2023-05-21T06:11:07;97450.13;;;15.72;100.00
8894;BME280;4483;48.622;9.230;2023-05-21T06:13:36;97452.00;;;15.83;100.00
8894;BME280;4483;48.622;9.230;2023-05-21T06:16:03;97441.19;;;15.89;100.00
8894;BME280;4483;48.622;9.230;2023-05-21T06:18:30;97445.78;;;15.98;100.00
8894;BME280;4483;48.622;9.230;2023-05-21T06:20:57;97444.00;;;16.11;100.00
8894;BME280;4483;48.622;9.230;2023-05-21T06:23:23;97439.63;;;16.24;100.00
8894;BME280;4483;48.622;9.230;2023-05-21T06:25:50;97443.72;;;16.39;100.00
8894;BME280;4483;48.622;9.230;2023-05-21T06:28:17;97448.84;;;16.53;100.00
8894;BME280;4483;48.622;9.230;2023-05-21T06:30:45;97439.00;;;16.69;100.00
8894;BME280;4483;48.622;9.230;2023-05-21T06:33:11;97437.69;;;16.87;100.00
8894;BME280;4483;48.622;9.230;2023-05-21T06:35:38;97442.28;;;17.07;100.00
8894;BME280;4483;48.622;9.230;2023-05-21T06:38:04;97434.31;;;17.33;100.00
8894;BME280;4483;48.622;9.230;2023-05-21T06:40:31;97434.22;;;17.58;100.00
8894;BME280;4483;48.622;9.230;2023-05-21T06:42:57;97434.75;;;17.85;100.00
8894;BME280;4483;48.622;9.230;2023-05-21T06:45:24;97424.81;;;18.12;100.00
8894;BME280;4483;48.622;9.230;2023-05-21T06:47:52;97434.53;;;18.43;100.00
8894;BME280;4483;48.622;9.230;2023-05-21T06:50:19;97431.78;;;18.67;100.00
8894;BME280;4483;48.622;9.230;2023-05-21T06:52:46;97430.66;;;18.91;99.43
8894;BME280;4483;48.622;9.230;2023-05-21T06:55:12;97435.28;;;19.20;98.80
8894;BME280;4483;48.622;9.230;2023-05-21T06:57:39;97441.69;;;19.58;97.60
8894;BME280;4483;48.622;9.230;2023-05-21T07:00:06;97435.91;;;20.05;95.99
8894;BME280;4483;48.622;9.230;2023-05-21T07:02:34;97435.84;;;20.47;93.85
8894;BME280;4483;48.622;9.230;2023-05-21T07:05:02;97431.50;;;20.76;90.93
8894;BME280;4483;48.622;9.230;2023-05-21T07:07:29;97432.91;;;20.99;89.61
8894;BME280;4483;48.622;9.230;2023-05-21T07:09:55;97434.88;;;21.07;79.85
8894;BME280;4483;48.622;9.230;2023-05-21T07:12:22;97432.38;;;20.95;81.98
8894;BME280;4483;48.622;9.230;2023-05-21T07:14:48;97442.34;;;21.02;82.08
8894;BME280;4483;48.622;9.230;2023-05-21T07:17:15;97450.22;;;21.11;81.03
8894;BME280;4483;48.622;9.230;2023-05-21T07:19:42;97443.84;;;21.14;80.41
8894;BME280;4483;48.622;9.230;2023-05-21T07:22:10;97436.44;;;21.19;78.30
8894;BME280;4483;48.622;9.230;2023-05-21T07:24:37;97434.34;;;21.32;78.38
8894;BME280;4483;48.622;9.230;2023-05-21T07:27:03;97440.56;;;21.50;77.61
8894;BME280;4483;48.622;9.230;2023-05-21T07:29:31;97439.16;;;21.74;76.46
8894;BME280;4483;48.622;9.230;2023-05-21T07:31:58;97435.50;;;22.14;75.12
8894;BME280;4483;48.622;9.230;2023-05-21T07:34:25;97427.69;;;22.31;73.28
8894;BME280;4483;48.622;9.230;2023-05-21T07:36:51;97421.16;;;22.45;72.09
8894;BME280;4483;48.622;9.230;2023-05-21T07:39:19;97431.50;;;22.56;70.24
8894;BME280;4483;48.622;9.230;2023-05-21T07:41:46;97419.94;;;22.66;70.12
8894;BME280;4483;48.622;9.230;2023-05-21T07:44:13;97422.22;;;22.79;68.48
8894;BME280;4483;48.622;9.230;2023-05-21T07:46:39;97428.09;;;22.90;68.49
8894;BME280;4483;48.622;9.230;2023-05-21T07:49:06;97423.00;;;23.07;67.81
8894;BME280;4483;48.622;9.230;2023-05-21T07:51:35;97423.38;;;23.12;66.03
8894;BME280;4483;48.622;9.230;2023-05-21T07:54:01;97427.38;;;23.16;66.40
8894;BME280;4483;48.622;9.230;2023-05-21T07:56:29;97421.13;;;23.17;66.23
8894;BME280;4483;48.622;9.230;2023-05-21T07:58:56;97423.09;;;23.15;66.28
8894;BME280;4483;48.622;9.230;2023-05-21T08:01:23;97428.13;;;23.26;66.35
8894;BME280;4483;48.622;9.230;2023-05-21T08:03:49;97423.94;;;23.33;65.97
8894;BME280;4483;48.622;9.230;2023-05-21T08:06:16;97422.88;;;23.43;65.51
8894;BME280;4483;48.622;9.230;2023-05-21T08:08:43;97420.72;;;23.82;64.91
8894;BME280;4483;48.622;9.230;2023-05-21T08:11:10;97414.63;;;24.33;64.23
8894;BME280;4483;48.622;9.230;2023-05-21T08:13:38;97402.66;;;24.80;62.24
8894;BME280;4483;48.622;9.230;2023-05-21T08:16:05;97416.69;;;25.13;60.25
8894;BME280;4483;48.622;9.230;2023-05-21T08:18:32;97407.22;;;25.44;59.60
8894;BME280;4483;48.622;9.230;2023-05-21T08:20:58;97410.19;;;25.73;57.24
8894;BME280;4483;48.622;9.230;2023-05-21T08:23:25;97412.63;;;25.99;56.84
8894;BME280;4483;48.622;9.230;2023-05-21T08:25:52;97417.72;;;26.00;56.01
8894;BME280;4483;48.622;9.230;2023-05-21T08:28:21;97413.13;;;26.02;56.24
8894;BME280;4483;48.622;9.230;2023-05-21T08:30:49;97398.75;;;26.13;56.00
8894;BME280;4483;48.622;9.230;2023-05-21T08:33:16;97413.72;;;26.28;55.14
8894;BME280;4483;48.622;9.230;2023-05-21T08:35:42;97406.13;;;26.33;54.76
8894;BME280;4483;48.622;9.230;2023-05-21T08:38:09;97408.72;;;26.41;54.77
8894;BME280;4483;48.622;9.230;2023-05-21T08:40:35;97401.84;;;26.63;54.09
8894;BME280;4483;48.622;9.230;2023-05-21T08:43:02;97398.63;;;26.92;53.60
8894;BME280;4483;48.622;9.230;2023-05-21T08:45:33;97399.31;;;27.39;53.34
8894;BME280;4483;48.622;9.230;2023-05-21T08:48:03;97405.63;;;27.90;52.36
8894;BME280;4483;48.622;9.230;2023-05-21T08:50:31;97401.56;;;28.02;50.85
8894;BME280;4483;48.622;9.230;2023-05-21T08:52:58;97403.13;;;27.96;50.45
8894;BME280;4483;48.622;9.230;2023-05-21T08:55:26;97403.28;;;27.95;50.58
8894;BME280;4483;48.622;9.230;2023-05-21T08:57:53;97401.69;;;27.86;50.42
8894;BME280;4483;48.622;9.230;2023-05-21T09:00:20;97401.34;;;27.89;49.98
8894;BME280;4483;48.622;9.230;2023-05-21T09:02:47;97405.22;;;28.15;50.22
8894;BME280;4483;48.622;9.230;2023-05-21T09:05:15;97412.91;;;28.39;48.62
8894;BME280;4483;48.622;9.230;2023-05-21T09:07:46;97414.22;;;28.58;48.38
8894;BME280;4483;48.622;9.230;2023-05-21T09:10:13;97414.44;;;28.77;47.31
8894;BME280;4483;48.622;9.230;2023-05-21T09:12:43;97407.84;;;28.73;47.84
8894;BME280;4483;48.622;9.230;2023-05-21T09:15:10;97405.13;;;28.67;48.21
8894;BME280;4483;48.622;9.230;2023-05-21T09:17:36;97402.22;;;28.62;48.05
8894;BME280;4483;48.622;9.230;2023-05-21T09:20:05;97401.22;;;28.63;47.56
8894;BME280;4483;48.622;9.230;2023-05-21T09:22:35;97404.88;;;28.62;48.03
8894;BME280;4483;48.622;9.230;2023-05-21T09:25:04;97410.91;;;28.56;47.17
8894;BME280;4483;48.622;9.230;2023-05-21T09:27:31;97410.47;;;28.52;47.19
8894;BME280;4483;48.622;9.230;2023-05-21T09:29:58;97402.13;;;28.55;47.16
8894;BME280;4483;48.622;9.230;2023-05-21T09:32:25;97398.81;;;28.68;46.84
8894;BME280;4483;48.622;9.230;2023-05-21T09:34:52;97411.91;;;28.69;46.78
8894;BME280;4483;48.622;9.230;2023-05-21T09:37:18;97402.78;;;28.57;46.14
8894;BME280;4483;48.622;9.230;2023-05-21T09:39:48;97416.41;;;28.54;46.18
8894;BME280;4483;48.622;9.230;2023-05-21T09:42:15;97407.69;;;28.31;45.55
8894;BME280;4483;48.622;9.230;2023-05-21T09:44:42;97410.44;;;28.23;46.17
8894;BME280;4483;48.622;9.230;2023-05-21T09:47:09;97410.78;;;28.20;46.03
8894;BME280;4483;48.622;9.230;2023-05-21T09:49:36;97409.16;;;28.19;46.81
8894;BME280;4483;48.622;9.230;2023-05-21T09:52:03;97413.81;;;28.32;47.55
8894;BME280;4483;48.622;9.230;2023-05-21T09:54:31;97409.16;;;28.48;47.11
8894;BME280;4483;48.622;9.230;2023-05-21T09:57:00;97413.81;;;28.32;46.77
8894;BME280;4483;48.622;9.230;2023-05-21T09:59:34;97417.75;;;28.21;46.77
8894;BME280;4483;48.622;9.230;2023-05-21T10:02:01;97421.22;;;28.07;46.93
8894;BME280;4483;48.622;9.230;2023-05-21T10:04:29;97415.19;;;27.76;46.99
8894;BME280;4483;48.622;9.230;2023-05-21T10:06:58;97413.63;;;27.67;47.67
8894;BME280;4483;48.622;9.230;2023-05-21T10:09:26;97423.16;;;27.76;48.10
8894;BME280;4483;48.622;9.230;2023-05-21T10:11:55;97420.81;;;27.96;48.09
8894;BME280;4483;48.622;9.230;2023-05-21T10:14:24;97415.47;;;28.18;47.70
8894;BME280;4483;48.622;9.230;2023-05-21T10:16:53;97413.09;;;28.23;47.16
8894;BME280;4483;48.622;9.230;2023-05-21T10:19:21;97419.13;;;28.17;46.83
8894;BME280;4483;48.622;9.230;2023-05-21T10:21:49;97420.94;;;28.17;46.80
8894;BME280;4483;48.622;9.230;2023-05-21T10:24:17;97407.34;;;28.34;47.26
8894;BME280;4483;48.622;9.230;2023-05-21T10:26:44;97407.13;;;28.50;46.67
8894;BME280;4483;48.622;9.230;2023-05-21T10:29:14;97411.38;;;28.59;45.94
8894;BME280;4483;48.622;9.230;2023-05-21T10:31:43;97403.31;;;28.67;46.36
8894;BME280;4483;48.622;9.230;2023-05-21T10:34:14;97399.81;;;28.82;46.28
8894;BME280;4483;48.622;9.230;2023-05-21T10:36:42;97399.81;;;28.82;45.14
8894;BME280;4483;48.622;9.230;2023-05-21T10:39:11;97402.47;;;28.82;46.03
8894;BME280;4483;48.622;9.230;2023-05-21T10:41:45;97403.91;;;28.99;45.66
8894;BME280;4483;48.622;9.230;2023-05-21T10:44:22;97402.50;;;29.17;45.66
8894;BME280;4483;48.622;9.230;2023-05-21T10:47:08;97401.59;;;29.31;45.00
8894;BME280;4483;48.622;9.230;2023-05-21T10:50:02;97393.00;;;29.29;44.08
8894;BME280;4483;48.622;9.230;2023-05-21T10:52:48;97385.53;;;29.39;44.43
8894;BME280;4483;48.622;9.230;2023-05-21T10:55:31;97386.59;;;29.45;42.31
8894;BME280;4483;48.622;9.230;2023-05-21T11:01:11;97372.63;;;29.30;43.58
8894;BME280;4483;48.622;9.230;2023-05-21T11:03:40;97377.53;;;29.33;43.16
8894;BME280;4483;48.622;9.230;2023-05-21T11:06:07;97372.63;;;29.30;43.22
8894;BME280;4483;48.622;9.230;2023-05-21T11:08:35;97379.16;;;29.34;42.66
8894;BME280;4483;48.622;9.230;2023-05-21T11:11:03;97374.78;;;29.05;42.66
8894;BME280;4483;48.622;9.230;2023-05-21T11:13:44;97381.69;;;28.85;42.83
8894;BME280;4483;48.622;9.230;2023-05-21T11:16:14;97377.97;;;28.80;43.49
8894;BME280;4483;48.622;9.230;2023-05-21T11:18:58;97372.84;;;28.78;44.40
8894;BME280;4483;48.622;9.230;2023-05-21T11:21:28;97381.88;;;28.84;44.64
8894;BME280;4483;48.622;9.230;2023-05-21T11:23:58;97384.44;;;28.92;44.54
8894;BME280;4483;48.622;9.230;2023-05-21T11:26:27;97383.47;;;28.99;44.70
8894;BME280;4483;48.622;9.230;2023-05-21T11:29:06;97379.75;;;28.94;44.76
8894;BME280;4483;48.622;9.230;2023-05-21T11:31:33;97383.16;;;28.88;44.75
8894;BME280;4483;48.622;9.230;2023-05-21T11:34:14;97378.84;;;28.87;44.50
8894;BME280;4483;48.622;9.230;2023-05-21T11:36:44;97376.53;;;28.62;44.27
8894;BME280;4483;48.622;9.230;2023-05-21T11:39:13;97372.19;;;28.55;45.10
8894;BME280;4483;48.622;9.230;2023-05-21T11:41:52;97377.34;;;28.48;45.82
8894;BME280;4483;48.622;9.230;2023-05-21T11:44:21;97375.81;;;28.54;46.24
8894;BME280;4483;48.622;9.230;2023-05-21T11:47:04;97375.00;;;28.53;46.04
8894;BME280;4483;48.622;9.230;2023-05-21T11:49:33;97378.91;;;28.57;46.28
8894;BME280;4483;48.622;9.230;2023-05-21T11:52:00;97381.38;;;28.59;46.85
8894;BME280;4483;48.622;9.230;2023-05-21T11:54:27;97372.00;;;28.56;46.64
8894;BME280;4483;48.622;9.230;2023-05-21T11:56:58;97385.59;;;28.53;46.44
8894;BME280;4483;48.622;9.230;2023-05-21T11:59:26;97382.66;;;28.48;46.23
8894;BME280;4483;48.622;9.230;2023-05-21T12:01:53;97383.69;;;28.33;46.12
8894;BME280;4483;48.622;9.230;2023-05-21T12:04:19;97384.03;;;28.30;46.40
8894;BME280;4483;48.622;9.230;2023-05-21T12:06:48;97388.88;;;28.26;45.93
8894;BME280;4483;48.622;9.230;2023-05-21T12:09:14;97386.50;;;28.17;45.64
8894;BME280;4483;48.622;9.230;2023-05-21T12:11:41;97385.03;;;28.00;44.98
8894;BME280;4483;48.622;9.230;2023-05-21T12:14:09;97385.81;;;27.86;44.60
8894;BME280;4483;48.622;9.230;2023-05-21T12:16:36;97385.34;;;27.82;44.55
8894;BME280;4483;48.622;9.230;2023-05-21T12:19:02;97387.63;;;27.70;44.38
8894;BME280;4483;48.622;9.230;2023-05-21T12:21:29;97384.75;;;27.57;44.50
8894;BME280;4483;48.622;9.230;2023-05-21T12:23:58;97388.56;;;27.55;44.72
8894;BME280;4483;48.622;9.230;2023-05-21T12:26:25;97385.59;;;27.58;44.83
8894;BME280;4483;48.622;9.230;2023-05-21T12:28:53;97392.97;;;27.62;44.82
8894;BME280;4483;48.622;9.230;2023-05-21T12:31:20;97390.09;;;27.72;44.82
8894;BME280;4483;48.622;9.230;2023-05-21T12:33:47;97389.00;;;27.81;44.22
8894;BME280;4483;48.622;9.230;2023-05-21T12:36:20;97385.91;;;27.77;44.47
8894;BME280;4483;48.622;9.230;2023-05-21T12:38:48;97383.78;;;27.73;43.64
8894;BME280;4483;48.622;9.230;2023-05-21T12:41:16;97390.72;;;27.74;44.16
8894;BME280;4483;48.622;9.230;2023-05-21T12:43:43;97387.63;;;27.70;44.14
8894;BME280;4483;48.622;9.230;2023-05-21T12:46:10;97382.22;;;27.64;44.24
8894;BME280;4483;48.622;9.230;2023-05-21T12:48:38;97386.25;;;27.74;44.72
8894;BME280;4483;48.622;9.230;2023-05-21T12:51:05;97393.00;;;27.77;44.65
8894;BME280;4483;48.622;9.230;2023-05-21T12:53:35;97391.72;;;27.73;44.53
8894;BME280;4483;48.622;9.230;2023-05-21T12:56:07;97396.22;;;27.72;44.36
8894;BME280;4483;48.622;9.230;2023-05-21T12:58:36;97396.09;;;27.66;44.59
8894;BME280;4483;48.622;9.230;2023-05-21T13:01:05;97397.16;;;27.57;44.52
8894;BME280;4483;48.622;9.230;2023-05-21T13:03:31;97394.88;;;27.54;45.06
8894;BME280;4483;48.622;9.230;2023-05-21T13:05:58;97397.16;;;27.57;44.59
8894;BME280;4483;48.622;9.230;2023-05-21T13:08:25;97402.72;;;27.62;44.92
8894;BME280;4483;48.622;9.230;2023-05-21T13:10:52;97398.47;;;27.61;44.22
8894;BME280;4483;48.622;9.230;2023-05-21T13:13:18;97394.94;;;27.46;44.86
8894;BME280;4483;48.622;9.230;2023-05-21T13:15:46;97399.13;;;27.40;44.48
8894;BME280;4483;48.622;9.230;2023-05-21T13:18:13;97395.31;;;27.43;44.53
8894;BME280;4483;48.622;9.230;2023-05-21T13:20:40;97395.59;;;27.48;44.85
8894;BME280;4483;48.622;9.230;2023-05-21T13:23:07;97385.66;;;27.50;45.19
8894;BME280;4483;48.622;9.230;2023-05-21T13:25:34;97390.34;;;27.40;45.45